Wayside, Wisconsin
Current Conditions -  °F | °C
As of 8:53 AM on Monday 24 Nov 2014 (Local Time) from KGRB Reporting Station
Overcast Overcast  
Wind Chill: 38°   Ceiling: 1600
Heat Index: 42°   Visibility: 8mi
Dew Point: 41°   Wind: 6mph
Humidity: 96%   Direction: 280°W
Pressure: 29.04"   Gusts: NA
Location:  44.2894°N, 88.0263°W
Report Text: KGRB 241453Z 28005KT 8SM OVC016 06/05 A2904 RMK AO2 SLP836 T00560050 53006
Loading
Personal Weather Stations






























Interactive Weather Map New forecast layout! Learn more

10-Day Weather Forecast

Advertisements
Track Severe Weather on mobile